createdAt,value
2022-12-13T00:00:13.865Z,20
2022-12-13T00:01:15.867Z,19
2022-12-13T00:02:17.912Z,19
2022-12-13T00:03:19.887Z,20
2022-12-13T00:04:21.932Z,20
2022-12-13T00:05:23.864Z,19
2022-12-13T00:06:25.884Z,19
2022-12-13T00:07:27.804Z,20
2022-12-13T00:08:28.866Z,19
2022-12-13T00:09:30.842Z,19
2022-12-13T00:10:32.884Z,19
2022-12-13T00:11:34.847Z,19
2022-12-13T00:12:36.865Z,20
2022-12-13T00:13:38.964Z,20
2022-12-13T00:14:40.924Z,20
2022-12-13T00:15:42.839Z,20
2022-12-13T00:16:44.882Z,20
2022-12-13T00:17:45.823Z,20
2022-12-13T00:18:47.876Z,20
2022-12-13T00:19:49.866Z,20
2022-12-13T00:20:51.964Z,20
2022-12-13T00:21:53.811Z,20
2022-12-13T00:22:54.813Z,20
2022-12-13T00:23:55.790Z,20
2022-12-13T00:24:56.805Z,20
2022-12-13T00:25:58.864Z,20
2022-12-13T00:27:00.892Z,20
2022-12-13T00:28:02.925Z,19
2022-12-13T00:29:04.920Z,19
2022-12-13T00:30:06.987Z,20
2022-12-13T00:31:43.471Z,19
2022-12-13T00:32:10.889Z,19
2022-12-13T00:33:12.804Z,-1
2022-12-13T00:34:14.768Z,19
2022-12-13T00:35:16.064Z,20
2022-12-13T00:36:17.819Z,20
2022-12-13T00:37:19.987Z,20
2022-12-13T00:38:21.894Z,20
2022-12-13T00:39:23.824Z,20
2022-12-13T00:40:25.887Z,20
2022-12-13T00:41:27.772Z,20
2022-12-13T00:42:28.930Z,20
2022-12-13T00:43:31.025Z,20
2022-12-13T00:44:32.886Z,20
2022-12-13T00:45:34.876Z,20
2022-12-13T00:46:36.969Z,20
2022-12-13T00:47:38.885Z,20
2022-12-13T00:48:40.817Z,20
2022-12-13T00:49:42.815Z,20
2022-12-13T00:50:44.807Z,20
2022-12-13T00:51:45.905Z,20
2022-12-13T00:52:47.985Z,20
2022-12-13T00:53:49.885Z,22
2022-12-13T00:54:51.905Z,22
2022-12-13T00:55:53.782Z,22
2022-12-13T00:56:55.952Z,22
2022-12-13T00:57:57.812Z,22
2022-12-13T00:58:58.888Z,22
2022-12-13T01:00:00.905Z,22
2022-12-13T01:01:02.996Z,22
2022-12-13T01:02:04.984Z,22
2022-12-13T01:03:06.948Z,22
2022-12-13T01:04:08.886Z,22
2022-12-13T01:05:10.945Z,20
2022-12-13T01:06:15.520Z,20
2022-12-13T01:07:13.865Z,19
2022-12-13T01:08:15.997Z,19
2022-12-13T01:09:17.904Z,19
2022-12-13T01:10:19.944Z,19
2022-12-13T01:11:21.924Z,19
2022-12-13T01:12:23.924Z,19
2022-12-13T01:13:25.988Z,19
2022-12-13T01:14:27.933Z,19
2022-12-13T01:15:29.793Z,19
2022-12-13T01:16:30.907Z,19
2022-12-13T01:17:32.905Z,19
2022-12-13T01:18:34.845Z,20
2022-12-13T01:19:36.964Z,19
2022-12-13T01:20:39.005Z,19
2022-12-13T01:21:40.804Z,19
2022-12-13T01:22:41.855Z,20
2022-12-13T01:23:43.824Z,19
2022-12-13T01:24:44.860Z,19
2022-12-13T01:25:46.932Z,19
2022-12-13T01:26:48.925Z,19
2022-12-13T01:27:50.808Z,18
2022-12-13T01:28:51.828Z,19
2022-12-13T01:29:52.866Z,19
2022-12-13T01:30:55.005Z,18
2022-12-13T01:31:56.985Z,18
2022-12-13T01:32:58.975Z,19
2022-12-13T01:34:00.984Z,-1
2022-12-13T01:35:02.984Z,19
2022-12-13T01:36:04.946Z,19
2022-12-13T01:37:06.965Z,19
2022-12-13T01:38:15.549Z,19
2022-12-13T01:39:14.962Z,18
2022-12-13T01:40:16.021Z,19
2022-12-13T01:41:17.967Z,19
2022-12-13T01:42:14.865Z,19
2022-12-13T01:43:16.883Z,19
2022-12-13T01:44:19.014Z,18
2022-12-13T01:45:20.869Z,18
2022-12-13T01:46:22.981Z,19
2022-12-13T01:47:24.942Z,18
2022-12-13T01:48:26.861Z,18
2022-12-13T01:49:28.783Z,18
2022-12-13T01:50:29.865Z,18
2022-12-13T01:51:31.925Z,18
2022-12-13T01:52:33.924Z,19
2022-12-13T01:53:35.905Z,19
2022-12-13T01:54:37.866Z,19
2022-12-13T01:55:41.384Z,19
2022-12-13T01:56:41.886Z,19
2022-12-13T01:57:45.747Z,18
2022-12-13T01:58:45.925Z,18
2022-12-13T01:59:48.007Z,18
2022-12-13T02:00:49.965Z,17
2022-12-13T02:01:52.005Z,17
2022-12-13T02:02:53.885Z,17
2022-12-13T02:07:00.080Z,17
2022-12-13T02:08:02.195Z,16
2022-12-13T02:09:04.567Z,16
2022-12-13T02:10:06.257Z,16
2022-12-13T02:11:07.816Z,16
2022-12-13T02:12:10.024Z,16
2022-12-13T02:13:11.955Z,16
2022-12-13T02:14:13.844Z,17
2022-12-13T02:15:15.227Z,17
2022-12-13T02:16:22.061Z,17
2022-12-13T02:17:18.957Z,17
2022-12-13T02:18:20.978Z,17
2022-12-13T02:19:22.938Z,17
2022-12-13T02:20:24.980Z,17
2022-12-13T02:21:26.977Z,18
2022-12-13T02:22:28.917Z,18
2022-12-13T02:23:30.996Z,17
2022-12-13T02:24:32.936Z,17
2022-12-13T02:25:34.836Z,18
2022-12-13T02:26:35.797Z,18
2022-12-13T02:27:42.488Z,18
2022-12-13T02:28:38.916Z,18
2022-12-13T02:29:40.935Z,18
2022-12-13T02:30:42.925Z,18
2022-12-13T02:31:44.856Z,18
2022-12-13T02:32:46.917Z,18
2022-12-13T02:33:48.977Z,17
2022-12-13T02:34:50.956Z,17
2022-12-13T02:35:53.147Z,18
2022-12-13T02:36:54.837Z,18
2022-12-13T02:37:55.845Z,18
2022-12-13T02:38:56.857Z,18
2022-12-13T02:39:58.842Z,18
2022-12-13T02:41:00.664Z,19
2022-12-13T02:42:01.945Z,18
2022-12-13T02:43:03.942Z,19
2022-12-13T02:44:05.963Z,19
2022-12-13T02:45:07.916Z,19
2022-12-13T02:46:09.958Z,19
2022-12-13T02:47:12.658Z,18
2022-12-13T02:48:13.875Z,19
2022-12-13T02:49:14.936Z,18
2022-12-13T02:50:16.922Z,18
2022-12-13T02:51:18.955Z,17
2022-12-13T02:52:22.060Z,18
2022-12-13T02:53:22.936Z,18
2022-12-13T02:54:24.836Z,18
2022-12-13T02:55:28.184Z,18
2022-12-13T02:56:27.876Z,17
2022-12-13T02:57:29.996Z,17
2022-12-13T02:58:32.035Z,17
2022-12-13T02:59:33.975Z,17
2022-12-13T03:00:35.940Z,17
2022-12-13T03:01:40.119Z,17
2022-12-13T03:02:40.054Z,17
2022-12-13T03:03:41.941Z,18
2022-12-13T03:04:43.896Z,18
2022-12-13T03:05:45.873Z,19
2022-12-13T03:06:47.936Z,18
2022-12-13T03:07:49.918Z,18
2022-12-13T03:08:50.876Z,17
2022-12-13T03:09:52.956Z,17
2022-12-13T03:10:55.068Z,17
2022-12-13T03:11:57.056Z,17
2022-12-13T03:12:59.084Z,17
2022-12-13T03:14:00.837Z,17
2022-12-13T03:15:01.916Z,17
2022-12-13T03:16:03.952Z,17
2022-12-13T03:17:06.040Z,17
2022-12-13T03:18:07.917Z,17
2022-12-13T03:19:10.004Z,16
2022-12-13T03:20:12.726Z,16
2022-12-13T03:21:13.975Z,18
2022-12-13T03:22:15.984Z,16
2022-12-13T03:23:17.896Z,16
2022-12-13T03:24:19.975Z,16
2022-12-13T03:25:30.644Z,16
2022-12-13T03:26:24.038Z,17
2022-12-13T03:27:26.004Z,17
2022-12-13T03:28:27.917Z,17
2022-12-13T03:29:29.879Z,17
2022-12-13T03:30:30.894Z,16
2022-12-13T03:31:33.001Z,16
2022-12-13T03:32:35.082Z,18
2022-12-13T03:33:36.876Z,17
2022-12-13T03:34:43.921Z,17
2022-12-13T03:35:44.555Z,16
2022-12-13T03:36:42.016Z,16
2022-12-13T03:37:43.854Z,16
2022-12-13T03:38:44.836Z,16
2022-12-13T03:39:45.916Z,16
2022-12-13T03:40:47.860Z,16
2022-12-13T03:41:49.899Z,16
2022-12-13T03:42:50.858Z,16
2022-12-13T03:43:52.996Z,16
2022-12-13T03:44:54.945Z,15
2022-12-13T03:45:57.018Z,15
2022-12-13T03:47:00.647Z,15
2022-12-13T03:48:00.914Z,15
2022-12-13T03:49:01.984Z,15
2022-12-13T03:50:07.439Z,15
2022-12-13T03:51:05.907Z,16
2022-12-13T03:52:07.976Z,15
2022-12-13T03:53:09.988Z,15
2022-12-13T03:54:11.956Z,15
2022-12-13T03:55:14.185Z,15
2022-12-13T03:56:15.837Z,16
2022-12-13T03:57:16.917Z,16
2022-12-13T03:58:18.904Z,16
2022-12-13T03:59:21.004Z,16
2022-12-13T04:00:22.996Z,16
2022-12-13T04:01:25.006Z,16
2022-12-13T04:02:30.885Z,15
2022-12-13T04:03:28.984Z,16
2022-12-13T04:04:30.876Z,16
2022-12-13T04:05:31.956Z,15
2022-12-13T04:06:33.937Z,15
2022-12-13T04:07:36.076Z,15
2022-12-13T04:08:38.047Z,15
2022-12-13T04:09:40.035Z,16
2022-12-13T04:10:42.016Z,16
2022-12-13T04:11:43.867Z,16
2022-12-13T04:12:48.283Z,16
2022-12-13T04:13:46.944Z,16
2022-12-13T04:14:48.931Z,16
2022-12-13T04:15:51.035Z,17
2022-12-13T04:16:52.968Z,17
2022-12-13T04:17:54.936Z,17
2022-12-13T04:18:57.025Z,17
2022-12-13T04:19:58.963Z,18
2022-12-13T04:21:00.934Z,18
2022-12-13T04:22:01.923Z,18
2022-12-13T04:23:09.785Z,18
2022-12-13T04:24:04.956Z,18
2022-12-13T04:25:07.017Z,18
2022-12-13T04:26:09.036Z,18
2022-12-13T04:27:10.984Z,18
2022-12-13T04:28:12.855Z,18
2022-12-13T04:29:13.832Z,18
2022-12-13T04:30:14.975Z,18
2022-12-13T04:31:16.886Z,18
2022-12-13T04:32:27.071Z,17
2022-12-13T04:33:18.898Z,17
2022-12-13T04:34:20.021Z,16
2022-12-13T04:35:21.917Z,17
2022-12-13T04:36:30.791Z,17
2022-12-13T04:37:24.896Z,17
2022-12-13T04:38:25.865Z,17
2022-12-13T04:39:26.965Z,17
2022-12-13T04:40:28.939Z,17
2022-12-13T04:41:34.164Z,17
2022-12-13T04:42:33.015Z,17
2022-12-13T04:43:35.079Z,17
2022-12-13T04:44:37.356Z,16
2022-12-13T04:45:39.082Z,16
2022-12-13T04:46:40.976Z,16
2022-12-13T04:47:43.016Z,16
2022-12-13T04:48:44.916Z,16
2022-12-13T04:49:47.019Z,16
2022-12-13T04:50:49.044Z,17
2022-12-13T04:51:52.732Z,17
2022-12-13T04:52:53.036Z,17
2022-12-13T04:53:55.016Z,17
2022-12-13T04:54:57.056Z,17
2022-12-13T04:55:58.995Z,16
2022-12-13T04:57:01.039Z,16
2022-12-13T04:58:02.944Z,16
2022-12-13T04:59:04.874Z,16
2022-12-13T05:00:07.155Z,16
2022-12-13T05:01:09.096Z,16
2022-12-13T05:02:11.069Z,16
2022-12-13T05:03:13.016Z,16
2022-12-13T05:04:15.036Z,16
2022-12-13T05:05:17.483Z,16
2022-12-13T05:06:26.509Z,16
2022-12-13T05:07:20.856Z,16
2022-12-13T05:08:22.066Z,16
2022-12-13T05:09:23.995Z,16
2022-12-13T05:10:33.688Z,16
2022-12-13T05:11:27.996Z,15
2022-12-13T05:12:30.115Z,16
2022-12-13T05:13:31.825Z,15
2022-12-13T05:14:32.955Z,15
2022-12-13T05:15:34.952Z,16
2022-12-13T05:16:37.109Z,16
2022-12-13T05:17:39.035Z,17
2022-12-13T05:18:41.037Z,17
2022-12-13T05:19:42.918Z,17
2022-12-13T05:20:45.003Z,18
2022-12-13T05:21:47.016Z,18
2022-12-13T05:22:49.043Z,18
2022-12-13T05:23:51.016Z,19
2022-12-13T05:24:53.036Z,19
2022-12-13T05:25:54.996Z,19
2022-12-13T05:26:57.015Z,19
2022-12-13T05:27:59.017Z,19
2022-12-13T05:29:00.998Z,19
2022-12-13T05:30:04.935Z,22
2022-12-13T05:31:04.983Z,20
2022-12-13T05:32:07.117Z,20
2022-12-13T05:33:09.117Z,20
2022-12-13T05:34:11.017Z,20
2022-12-13T05:35:13.202Z,22
2022-12-13T05:36:13.944Z,20
2022-12-13T05:37:14.995Z,22
2022-12-13T05:38:16.983Z,22
2022-12-13T05:39:27.674Z,22
2022-12-13T05:40:20.995Z,22
2022-12-13T05:41:22.955Z,22
2022-12-13T05:42:24.996Z,22
2022-12-13T05:43:42.620Z,23
2022-12-13T05:44:29.018Z,23
2022-12-13T05:45:30.997Z,23
2022-12-13T05:46:36.879Z,24
2022-12-13T05:47:34.906Z,24
2022-12-13T05:48:36.982Z,24
2022-12-13T05:49:39.579Z,24
2022-12-13T05:50:40.943Z,24
2022-12-13T05:51:42.019Z,24
2022-12-13T05:52:44.066Z,24
2022-12-13T05:53:50.077Z,25
2022-12-13T05:54:47.959Z,25
2022-12-13T05:55:50.020Z,25
2022-12-13T05:56:51.883Z,25
2022-12-13T05:57:54.005Z,25
2022-12-13T05:58:56.037Z,25
2022-12-13T05:59:58.039Z,25
2022-12-13T06:01:00.083Z,23
2022-12-13T06:02:02.202Z,23
2022-12-13T06:03:04.268Z,22
2022-12-13T06:04:06.035Z,22
2022-12-13T06:05:08.084Z,22
2022-12-13T06:06:10.099Z,20
2022-12-13T06:07:12.117Z,19
2022-12-13T06:08:24.152Z,18
2022-12-13T06:09:14.917Z,17
2022-12-13T06:10:21.765Z,17
2022-12-13T06:11:31.064Z,18
2022-12-13T06:12:30.892Z,18
2022-12-13T06:13:31.803Z,18
2022-12-13T06:14:23.334Z,18
2022-12-13T06:15:25.269Z,18
2022-12-13T06:16:26.927Z,18
2022-12-13T06:17:29.036Z,17
2022-12-13T06:18:31.052Z,17
2022-12-13T06:19:33.016Z,17
2022-12-13T06:20:34.954Z,17
2022-12-13T06:21:40.920Z,17
2022-12-13T06:22:38.061Z,17
2022-12-13T06:23:40.236Z,17
2022-12-13T06:24:42.594Z,16
2022-12-13T06:25:47.469Z,16
2022-12-13T06:26:46.398Z,17
2022-12-13T06:27:48.016Z,17
2022-12-13T06:28:49.978Z,17
2022-12-13T06:29:51.057Z,17
2022-12-13T06:30:53.062Z,17
2022-12-13T06:31:55.017Z,16
2022-12-13T06:32:56.961Z,16
2022-12-13T06:33:57.937Z,16
2022-12-13T06:34:58.938Z,17
2022-12-13T06:35:59.917Z,17
2022-12-13T06:37:01.225Z,16
2022-12-13T06:38:02.222Z,17
2022-12-13T06:39:02.915Z,17
2022-12-13T06:40:04.015Z,16
2022-12-13T06:41:06.024Z,16
2022-12-13T06:42:07.888Z,16
2022-12-13T06:43:10.059Z,16
2022-12-13T06:44:11.976Z,16
2022-12-13T06:45:14.059Z,16
2022-12-13T06:46:16.098Z,16
2022-12-13T06:47:31.092Z,16
2022-12-13T06:48:20.379Z,16
2022-12-13T06:49:20.936Z,16
2022-12-13T06:50:21.976Z,16
2022-12-13T06:51:32.318Z,15
2022-12-13T06:52:26.096Z,15
2022-12-13T06:53:28.120Z,15
2022-12-13T06:54:29.911Z,16
2022-12-13T06:55:31.075Z,16
2022-12-13T06:56:33.055Z,17
2022-12-13T06:57:35.126Z,17
2022-12-13T06:58:37.011Z,17
2022-12-13T06:59:39.308Z,18
2022-12-13T07:00:44.283Z,18
2022-12-13T07:01:43.071Z,18
2022-12-13T07:02:45.071Z,19
2022-12-13T07:03:47.007Z,18
2022-12-13T07:04:49.057Z,18
2022-12-13T07:05:55.156Z,18
2022-12-13T07:06:52.018Z,18
2022-12-13T07:07:54.017Z,18
2022-12-13T07:08:56.065Z,19
2022-12-13T07:09:57.941Z,20
2022-12-13T07:11:00.101Z,20
2022-12-13T07:12:02.035Z,20
2022-12-13T07:13:03.958Z,22
2022-12-13T07:14:04.976Z,22
2022-12-13T07:15:06.036Z,22
2022-12-13T07:16:08.198Z,23
2022-12-13T07:17:10.115Z,23
2022-12-13T07:18:12.024Z,23
2022-12-13T07:19:23.208Z,23
2022-12-13T07:20:15.996Z,22
2022-12-13T07:21:21.529Z,22
2022-12-13T07:22:20.016Z,23
2022-12-13T07:23:24.279Z,23
2022-12-13T07:24:24.063Z,24
2022-12-13T07:25:27.225Z,25
2022-12-13T07:26:27.975Z,25
2022-12-13T07:27:29.983Z,25
2022-12-13T07:28:30.940Z,25
2022-12-13T07:29:31.976Z,25
2022-12-13T07:30:34.135Z,26
2022-12-13T07:31:36.077Z,25
2022-12-13T07:32:38.005Z,27
2022-12-13T07:33:40.515Z,28
2022-12-13T07:34:42.016Z,30
2022-12-13T07:35:44.096Z,29
2022-12-13T07:36:46.036Z,29
2022-12-13T07:37:48.023Z,30
2022-12-13T07:38:50.036Z,31
2022-12-13T07:39:52.008Z,33
2022-12-13T07:40:53.058Z,33
2022-12-13T07:41:55.059Z,33
2022-12-13T07:42:57.019Z,33
2022-12-13T07:43:59.035Z,31
2022-12-13T07:45:01.030Z,31
2022-12-13T07:46:03.116Z,33
2022-12-13T07:47:05.148Z,33
2022-12-13T07:48:06.973Z,31
2022-12-13T07:49:09.002Z,31
2022-12-13T07:50:13.898Z,31
2022-12-13T07:51:13.048Z,31
2022-12-13T07:52:15.077Z,31
2022-12-13T07:53:17.449Z,30
2022-12-13T07:54:19.059Z,30
2022-12-13T07:55:23.181Z,31
2022-12-13T07:56:22.899Z,31
2022-12-13T07:57:24.096Z,33
2022-12-13T07:58:26.097Z,31
2022-12-13T07:59:28.418Z,30
2022-12-13T08:00:30.099Z,30
2022-12-13T08:01:32.267Z,31
2022-12-13T08:02:34.157Z,32
2022-12-13T08:03:36.113Z,29
2022-12-13T08:04:38.672Z,29
2022-12-13T08:05:40.700Z,29
2022-12-13T08:06:42.077Z,30
2022-12-13T08:07:44.041Z,30
2022-12-13T08:08:45.970Z,31
2022-12-13T08:09:52.528Z,29
2022-12-13T08:10:49.079Z,29
2022-12-13T08:11:50.998Z,29
2022-12-13T08:12:51.996Z,29
2022-12-13T08:13:53.050Z,28
2022-12-13T08:14:55.006Z,28
2022-12-13T08:15:57.145Z,28
2022-12-13T08:16:59.090Z,28
2022-12-13T08:18:01.076Z,27
2022-12-13T08:19:04.467Z,27
2022-12-13T08:20:05.063Z,28
2022-12-13T08:21:14.162Z,27
2022-12-13T08:22:14.428Z,27
2022-12-13T08:23:10.829Z,27
2022-12-13T08:24:15.521Z,27
2022-12-13T08:25:14.062Z,26
2022-12-13T08:26:16.070Z,26
2022-12-13T08:27:18.088Z,27
2022-12-13T08:28:20.090Z,27
2022-12-13T08:29:33.719Z,26
2022-12-13T08:30:24.037Z,26
2022-12-13T08:31:26.081Z,26
2022-12-13T08:32:27.177Z,26
2022-12-13T08:33:29.115Z,25
2022-12-13T08:34:31.156Z,25
2022-12-13T08:35:34.414Z,25
2022-12-13T08:36:34.998Z,25
2022-12-13T08:37:36.117Z,24
2022-12-13T08:38:38.096Z,24
2022-12-13T08:39:40.096Z,23
2022-12-13T08:40:42.078Z,23
2022-12-13T08:41:44.081Z,24
2022-12-13T08:42:46.058Z,24
2022-12-13T08:43:48.009Z,23
2022-12-13T08:44:50.631Z,23
2022-12-13T08:45:52.095Z,23
2022-12-13T08:46:54.152Z,23
2022-12-13T08:47:56.158Z,23
2022-12-13T08:48:58.140Z,20
2022-12-13T08:50:01.719Z,20
2022-12-13T08:51:02.097Z,22
2022-12-13T08:52:04.057Z,20
2022-12-13T08:53:06.137Z,20
2022-12-13T08:54:10.135Z,20
2022-12-13T08:55:10.042Z,22
2022-12-13T08:56:12.078Z,22
2022-12-13T08:57:14.088Z,23
2022-12-13T08:58:16.176Z,23
2022-12-13T08:59:18.056Z,22
2022-12-13T09:00:20.111Z,23
2022-12-13T09:01:22.167Z,23
2022-12-13T09:02:24.137Z,23
2022-12-13T09:03:26.177Z,24
2022-12-13T09:04:31.286Z,24
2022-12-13T09:05:32.805Z,25
2022-12-13T09:06:32.016Z,23
2022-12-13T09:07:32.992Z,22
2022-12-13T09:08:35.314Z,20
2022-12-13T09:09:37.034Z,20
2022-12-13T09:10:38.837Z,22
2022-12-13T09:11:40.332Z,20
2022-12-13T09:12:42.104Z,21
2022-12-13T09:13:44.383Z,20
2022-12-13T09:14:46.265Z,20
2022-12-13T09:15:48.241Z,22
2022-12-13T09:16:50.713Z,22
2022-12-13T09:17:52.878Z,21
2022-12-13T09:18:55.035Z,20
2022-12-13T09:19:57.875Z,19
2022-12-13T09:21:10.188Z,19
2022-12-13T09:22:02.965Z,19
2022-12-13T09:23:02.222Z,18
2022-12-13T09:24:03.144Z,18
2022-12-13T09:25:05.070Z,19
2022-12-13T09:26:07.152Z,18
2022-12-13T09:27:10.107Z,18
2022-12-13T09:28:11.036Z,18
2022-12-13T09:29:13.034Z,17
2022-12-13T09:30:15.117Z,17
2022-12-13T09:31:17.158Z,18
2022-12-13T09:32:19.117Z,18
2022-12-13T09:33:28.884Z,17
2022-12-13T09:34:23.101Z,18
2022-12-13T09:35:25.123Z,17
2022-12-13T09:36:26.990Z,18
2022-12-13T09:37:28.122Z,18
2022-12-13T09:38:30.083Z,17
2022-12-13T09:39:32.017Z,17
2022-12-13T09:40:37.706Z,18
2022-12-13T09:41:40.521Z,18
2022-12-13T09:42:37.039Z,17
2022-12-13T09:43:42.816Z,17
2022-12-13T09:44:42.623Z,16
2022-12-13T09:45:43.208Z,17
2022-12-13T09:46:45.479Z,17
2022-12-13T09:47:47.610Z,17
2022-12-13T09:48:49.113Z,16
2022-12-13T09:49:52.000Z,16
2022-12-13T09:51:16.860Z,17
2022-12-13T09:52:04.488Z,16
2022-12-13T09:53:00.031Z,16
2022-12-13T09:53:59.071Z,16
2022-12-13T09:54:59.988Z,17
2022-12-13T09:56:10.161Z,17
2022-12-13T09:57:01.907Z,17
2022-12-13T09:58:03.154Z,18
2022-12-13T09:59:05.144Z,18
2022-12-13T10:00:07.236Z,18
2022-12-13T10:01:09.119Z,18
2022-12-13T10:02:11.115Z,18
2022-12-13T10:03:12.967Z,18
2022-12-13T10:04:14.117Z,18
2022-12-13T10:05:22.100Z,18
2022-12-13T10:06:22.548Z,17
2022-12-13T10:07:20.087Z,18
2022-12-13T10:08:22.036Z,17
2022-12-13T10:09:24.154Z,17
2022-12-13T10:10:26.194Z,17
2022-12-13T10:11:31.805Z,17
2022-12-13T10:12:28.996Z,17
2022-12-13T10:13:29.989Z,16
2022-12-13T10:14:30.987Z,16
2022-12-13T10:15:31.995Z,16
2022-12-13T10:16:36.012Z,17
2022-12-13T10:17:38.035Z,17
2022-12-13T10:18:36.044Z,16
2022-12-13T10:19:38.049Z,16
2022-12-13T10:20:40.184Z,18
2022-12-13T10:21:42.131Z,17
2022-12-13T10:22:56.464Z,17
2022-12-13T10:24:23.059Z,16
2022-12-13T10:24:48.273Z,15
2022-12-13T10:25:50.823Z,16
2022-12-13T10:26:52.191Z,16
2022-12-13T10:27:54.031Z,16
2022-12-13T10:28:56.099Z,16
2022-12-13T10:29:58.123Z,16
2022-12-13T10:31:00.247Z,17
2022-12-13T10:32:02.135Z,17
2022-12-13T10:33:04.070Z,17
2022-12-13T10:34:06.075Z,18
2022-12-13T10:35:08.020Z,17
2022-12-13T10:36:09.320Z,17
2022-12-13T10:37:11.236Z,17
2022-12-13T10:38:13.238Z,17
2022-12-13T10:39:15.091Z,16
2022-12-13T10:40:33.022Z,17
2022-12-13T10:41:19.047Z,17
2022-12-13T10:42:22.239Z,17
2022-12-13T10:43:21.467Z,17
2022-12-13T10:44:23.076Z,17
2022-12-13T10:45:24.230Z,17
2022-12-13T10:46:26.168Z,16
2022-12-13T10:47:28.119Z,17
2022-12-13T10:48:30.216Z,16
2022-12-13T10:49:31.993Z,17
2022-12-13T10:50:33.164Z,16
2022-12-13T10:51:34.077Z,16
2022-12-13T10:52:43.777Z,16
2022-12-13T10:53:41.307Z,16
2022-12-13T10:54:48.285Z,17
2022-12-13T10:55:42.057Z,17
2022-12-13T10:56:44.162Z,17
2022-12-13T10:57:46.047Z,17
2022-12-13T10:58:48.153Z,16
2022-12-13T10:59:50.127Z,16
2022-12-13T11:00:52.130Z,17
2022-12-13T11:01:54.252Z,16
2022-12-13T11:02:56.105Z,16
2022-12-13T11:04:01.896Z,15
2022-12-13T11:05:00.006Z,15
2022-12-13T11:06:01.042Z,15
2022-12-13T11:07:03.126Z,16
2022-12-13T11:08:05.126Z,16
2022-12-13T11:09:07.044Z,16
2022-12-13T11:10:08.168Z,16
2022-12-13T11:11:10.172Z,15
2022-12-13T11:12:12.143Z,16
2022-12-13T11:13:14.048Z,15
2022-12-13T11:14:15.105Z,15
2022-12-13T11:15:17.075Z,15
2022-12-13T11:16:19.211Z,14
2022-12-13T11:17:21.106Z,15
2022-12-13T11:18:23.452Z,14
2022-12-13T11:19:25.502Z,15
2022-12-13T11:20:27.017Z,15
2022-12-13T11:21:28.100Z,16
2022-12-13T11:22:30.062Z,16
2022-12-13T11:23:32.165Z,16
2022-12-13T11:24:34.117Z,16
2022-12-13T11:25:36.177Z,16
2022-12-13T11:26:38.119Z,17
2022-12-13T11:27:40.137Z,16
2022-12-13T11:28:42.715Z,15
2022-12-13T11:29:44.092Z,16
2022-12-13T11:30:46.156Z,16
2022-12-13T11:31:48.229Z,15
2022-12-13T11:32:52.502Z,15
2022-12-13T11:33:52.240Z,14
2022-12-13T11:34:54.039Z,14
2022-12-13T11:35:55.110Z,14
2022-12-13T11:36:57.123Z,15
2022-12-13T11:37:59.073Z,15
2022-12-13T11:39:01.212Z,15
2022-12-13T11:40:03.157Z,14
2022-12-13T11:41:05.085Z,14
2022-12-13T11:42:07.171Z,15
2022-12-13T11:43:09.160Z,15
2022-12-13T11:44:11.078Z,16
2022-12-13T11:45:13.242Z,16
2022-12-13T11:46:15.211Z,16
2022-12-13T11:47:17.162Z,15
2022-12-13T11:48:19.153Z,14
2022-12-13T11:49:21.100Z,15
2022-12-13T11:50:32.710Z,14
2022-12-13T11:51:24.072Z,15
2022-12-13T11:52:25.085Z,14
2022-12-13T11:53:27.515Z,14
2022-12-13T11:54:29.122Z,15
2022-12-13T11:55:31.109Z,14
2022-12-13T11:56:33.119Z,15
2022-12-13T11:57:35.119Z,14
2022-12-13T11:59:39.587Z,15
2022-12-13T12:00:41.745Z,14
2022-12-13T12:01:43.136Z,13
2022-12-13T12:02:45.215Z,14
2022-12-13T12:03:47.260Z,14
2022-12-13T12:04:49.611Z,14
2022-12-13T12:05:55.897Z,13
2022-12-13T12:06:53.045Z,12
2022-12-13T12:08:28.159Z,12
2022-12-13T12:08:55.215Z,12
2022-12-13T12:09:57.236Z,12
2022-12-13T12:10:59.038Z,13
2022-12-13T12:12:00.134Z,12
2022-12-13T12:13:01.133Z,12
2022-12-13T12:14:03.112Z,12
2022-12-13T12:15:05.709Z,13
2022-12-13T12:16:07.224Z,12
2022-12-13T12:17:09.148Z,13
2022-12-13T12:18:11.082Z,12
2022-12-13T12:19:13.164Z,13
2022-12-13T12:20:23.179Z,13
2022-12-13T12:21:17.164Z,11
2022-12-13T12:22:19.198Z,12
2022-12-13T12:23:21.127Z,12
2022-12-13T12:24:23.055Z,12
2022-12-13T12:25:24.134Z,12
2022-12-13T12:26:26.200Z,12
2022-12-13T12:27:28.154Z,12
2022-12-13T12:28:30.185Z,12
2022-12-13T12:29:32.095Z,13
2022-12-13T12:30:34.269Z,12
2022-12-13T12:31:36.269Z,11
2022-12-13T12:32:38.135Z,12
2022-12-13T12:33:40.181Z,12
2022-12-13T12:34:42.131Z,12
2022-12-13T12:35:45.866Z,12
2022-12-13T12:36:45.003Z,12
2022-12-13T12:37:46.097Z,12
2022-12-13T12:38:48.192Z,11
2022-12-13T12:39:50.052Z,13
2022-12-13T12:41:15.434Z,13
2022-12-13T12:41:53.247Z,13
2022-12-13T12:43:13.654Z,12
2022-12-13T12:43:57.177Z,12
2022-12-13T12:44:59.155Z,11
2022-12-13T12:46:01.331Z,11
2022-12-13T12:47:28.540Z,11
2022-12-13T12:49:07.734Z,11
2022-12-13T12:50:09.310Z,9
2022-12-13T12:51:11.224Z,9
2022-12-13T12:52:13.198Z,12
2022-12-13T12:53:15.096Z,12
2022-12-13T12:54:32.897Z,11
2022-12-13T12:55:34.215Z,11
2022-12-13T12:56:36.181Z,12
2022-12-13T12:57:38.076Z,12
2022-12-13T12:58:39.331Z,12
2022-12-13T12:59:41.737Z,12
2022-12-13T13:00:43.222Z,13
2022-12-13T13:01:45.275Z,12
2022-12-13T13:02:47.266Z,12
2022-12-13T13:03:49.206Z,12
2022-12-13T13:04:51.176Z,13
2022-12-13T13:05:58.517Z,12
2022-12-13T13:07:01.307Z,11
2022-12-13T13:07:57.136Z,12
2022-12-13T13:08:59.457Z,11
2022-12-13T13:10:16.133Z,12
2022-12-13T13:11:03.215Z,11
2022-12-13T13:12:09.620Z,11
2022-12-13T13:13:11.850Z,9
2022-12-13T13:14:09.180Z,9
2022-12-13T13:15:11.237Z,9
2022-12-13T13:16:13.303Z,9
2022-12-13T13:17:15.180Z,9
2022-12-13T13:18:17.235Z,9
2022-12-13T13:19:25.562Z,8
2022-12-13T13:20:21.343Z,9
2022-12-13T13:21:23.095Z,9
2022-12-13T13:22:30.436Z,9
2022-12-13T13:23:39.275Z,9
2022-12-13T13:24:28.335Z,9
2022-12-13T13:25:30.177Z,11
2022-12-13T13:26:36.135Z,11
2022-12-13T13:27:34.350Z,9
2022-12-13T13:28:36.276Z,11
2022-12-13T13:29:38.236Z,11
2022-12-13T13:30:40.286Z,9
2022-12-13T13:31:42.158Z,9
2022-12-13T13:32:43.198Z,9
2022-12-13T13:33:45.144Z,11
2022-12-13T13:34:47.296Z,9
2022-12-13T13:35:49.393Z,8
2022-12-13T13:36:51.257Z,8
2022-12-13T13:37:53.164Z,8
2022-12-13T13:38:55.150Z,8
2022-12-13T13:39:57.155Z,9
2022-12-13T13:40:58.236Z,9
2022-12-13T13:42:00.261Z,9
2022-12-13T13:43:02.294Z,8
2022-12-13T13:44:04.230Z,8
2022-12-13T13:45:06.445Z,8
2022-12-13T13:46:08.379Z,9
2022-12-13T13:47:10.190Z,9
2022-12-13T13:48:14.349Z,9
2022-12-13T13:49:14.256Z,9
2022-12-13T13:50:16.271Z,9
2022-12-13T13:51:18.218Z,11
2022-12-13T13:52:27.533Z,8
2022-12-13T13:53:22.603Z,9
2022-12-13T13:54:24.176Z,9
2022-12-13T13:55:26.225Z,8
2022-12-13T13:56:28.253Z,8
2022-12-13T13:58:07.466Z,7
2022-12-13T13:58:32.321Z,9
2022-12-13T13:59:34.349Z,8
2022-12-13T14:00:36.213Z,8
2022-12-13T14:01:38.436Z,7
2022-12-13T14:02:40.230Z,8
2022-12-13T14:03:42.817Z,8
2022-12-13T14:04:44.144Z,8
2022-12-13T14:05:45.142Z,7
2022-12-13T14:06:46.254Z,7
2022-12-13T14:07:48.176Z,8
2022-12-13T14:08:50.154Z,7
2022-12-13T14:09:52.156Z,8
2022-12-13T14:10:54.179Z,8
2022-12-13T14:11:56.304Z,8
2022-12-13T14:12:58.314Z,9
2022-12-13T14:14:00.282Z,9
2022-12-13T14:15:02.218Z,11
2022-12-13T14:16:04.454Z,10
2022-12-13T14:17:06.360Z,9
2022-12-13T14:18:08.320Z,9
2022-12-13T14:19:10.316Z,9
2022-12-13T14:20:12.384Z,9
2022-12-13T14:21:14.335Z,8
2022-12-13T14:22:17.275Z,9
2022-12-13T14:23:21.641Z,9
2022-12-13T14:24:21.277Z,8
2022-12-13T14:25:23.164Z,9
2022-12-13T14:26:24.087Z,11
2022-12-13T14:27:25.139Z,9
2022-12-13T14:28:26.659Z,11
2022-12-13T14:29:28.240Z,11
2022-12-13T14:30:30.152Z,12
2022-12-13T14:31:32.236Z,12
2022-12-13T14:32:34.836Z,11
2022-12-13T14:33:36.762Z,12
2022-12-13T14:34:39.184Z,12
2022-12-13T14:35:41.296Z,12
2022-12-13T14:36:48.073Z,12
2022-12-13T14:37:44.299Z,12
2022-12-13T14:38:46.219Z,12
2022-12-13T14:39:48.435Z,12
2022-12-13T14:40:50.193Z,12
2022-12-13T14:41:56.428Z,12
2022-12-13T14:42:54.196Z,13
2022-12-13T14:43:56.261Z,13
2022-12-13T14:44:58.350Z,13
2022-12-13T14:46:00.218Z,12
2022-12-13T14:47:02.339Z,12
2022-12-13T14:48:04.318Z,13
2022-12-13T14:49:07.820Z,12